createdAt,value
2022-12-26T00:00:02.241Z,0.00
2022-12-26T00:01:02.254Z,0.00
2022-12-26T00:02:02.236Z,0.00
2022-12-26T00:03:02.366Z,0.00
2022-12-26T00:04:02.408Z,0.00
2022-12-26T00:05:02.380Z,0.00
2022-12-26T00:06:02.265Z,0.00
2022-12-26T00:07:02.296Z,0.00
2022-12-26T00:08:02.268Z,0.00
2022-12-26T00:09:02.294Z,0.00
2022-12-26T00:10:02.283Z,0.00
2022-12-26T00:11:02.290Z,0.00
2022-12-26T00:12:02.290Z,0.00
2022-12-26T00:13:39.305Z,0.00
2022-12-26T00:14:02.294Z,0.00
2022-12-26T00:15:02.345Z,0.00
2022-12-26T00:16:02.365Z,0.00
2022-12-26T00:17:02.332Z,0.00
2022-12-26T00:18:02.322Z,0.00
2022-12-26T00:19:02.317Z,0.00
2022-12-26T00:20:02.336Z,0.00
2022-12-26T00:21:02.340Z,0.00
2022-12-26T00:22:02.367Z,0.00
2022-12-26T00:23:02.360Z,0.00
2022-12-26T00:24:02.349Z,0.00
2022-12-26T00:25:02.346Z,0.00
2022-12-26T00:26:02.367Z,0.00
2022-12-26T00:27:02.405Z,0.00
2022-12-26T00:28:02.370Z,0.00
2022-12-26T00:29:02.392Z,0.00
2022-12-26T00:30:02.378Z,0.00
2022-12-26T00:31:02.419Z,0.00
2022-12-26T00:32:02.436Z,0.00
2022-12-26T00:33:02.387Z,0.00
2022-12-26T00:34:02.390Z,0.00
2022-12-26T00:35:02.395Z,0.00
2022-12-26T00:36:02.493Z,0.00
2022-12-26T00:37:02.419Z,0.00
2022-12-26T00:38:02.423Z,0.00
2022-12-26T00:39:02.444Z,0.00
2022-12-26T00:40:02.433Z,0.00
2022-12-26T00:41:02.425Z,0.00
2022-12-26T00:42:02.440Z,0.00
2022-12-26T00:43:02.436Z,0.00
2022-12-26T00:44:02.447Z,0.00
2022-12-26T00:45:02.444Z,0.00
2022-12-26T00:46:02.465Z,0.00
2022-12-26T00:47:02.484Z,0.00
2022-12-26T00:48:02.463Z,0.00
2022-12-26T00:49:02.470Z,0.00
2022-12-26T00:50:11.763Z,0.00
2022-12-26T00:51:02.474Z,0.00
2022-12-26T00:52:02.492Z,0.00
2022-12-26T00:53:02.484Z,0.00
2022-12-26T00:54:02.504Z,0.00
2022-12-26T00:55:02.583Z,0.00
2022-12-26T00:56:02.518Z,0.00
2022-12-26T00:57:02.503Z,0.00
2022-12-26T00:58:02.514Z,0.00
2022-12-26T00:59:02.520Z,0.00
2022-12-26T01:00:02.520Z,0.00
2022-12-26T01:01:02.598Z,0.00
2022-12-26T01:02:02.716Z,0.00
2022-12-26T01:03:02.728Z,0.00
2022-12-26T01:04:02.533Z,0.00
2022-12-26T01:05:02.548Z,0.00
2022-12-26T01:06:02.544Z,0.00
2022-12-26T01:07:02.561Z,0.00
2022-12-26T01:08:21.850Z,0.00
2022-12-26T01:09:02.563Z,0.00
2022-12-26T01:10:02.578Z,0.00
2022-12-26T01:11:02.600Z,0.00
2022-12-26T01:12:02.574Z,0.00
2022-12-26T01:13:02.607Z,0.00
2022-12-26T01:14:02.583Z,0.00
2022-12-26T01:15:02.599Z,0.00
2022-12-26T01:16:02.686Z,0.00
2022-12-26T01:17:02.600Z,0.00
2022-12-26T01:18:02.635Z,0.00
2022-12-26T01:19:02.615Z,0.00
2022-12-26T01:20:02.620Z,0.00
2022-12-26T01:21:02.633Z,0.00
2022-12-26T01:22:02.624Z,0.00
2022-12-26T01:23:02.631Z,0.00
2022-12-26T01:24:02.642Z,0.00
2022-12-26T01:25:02.639Z,0.00
2022-12-26T01:26:18.131Z,0.00
2022-12-26T01:27:02.709Z,0.00
2022-12-26T01:28:02.661Z,0.00
2022-12-26T01:29:02.659Z,0.00
2022-12-26T01:30:02.660Z,0.00
2022-12-26T01:31:02.676Z,0.00
2022-12-26T01:32:02.772Z,0.00
2022-12-26T01:33:02.698Z,0.00
2022-12-26T01:34:02.698Z,0.00
2022-12-26T01:35:02.687Z,0.00
2022-12-26T01:36:02.697Z,0.00
2022-12-26T01:37:02.697Z,0.00
2022-12-26T01:38:02.713Z,0.00
2022-12-26T01:39:02.709Z,0.00
2022-12-26T01:40:02.714Z,0.00
2022-12-26T01:41:02.722Z,0.00
2022-12-26T01:42:02.926Z,0.00
2022-12-26T01:43:02.761Z,0.00
2022-12-26T01:44:02.771Z,0.00
2022-12-26T01:45:02.747Z,0.00
2022-12-26T01:46:02.775Z,0.00
2022-12-26T01:47:02.748Z,0.00
2022-12-26T01:48:02.754Z,0.00
2022-12-26T01:49:02.759Z,0.00
2022-12-26T01:50:02.789Z,0.00
2022-12-26T01:51:02.803Z,0.00
2022-12-26T01:52:02.780Z,0.00
2022-12-26T01:53:02.799Z,0.00
2022-12-26T01:54:40.696Z,0.00
2022-12-26T01:55:02.805Z,0.00
2022-12-26T01:56:02.792Z,0.00
2022-12-26T01:57:02.805Z,0.00
2022-12-26T01:58:02.812Z,0.00
2022-12-26T01:59:02.850Z,0.00
2022-12-26T02:00:02.823Z,0.00
2022-12-26T02:01:02.859Z,0.00
2022-12-26T02:02:02.996Z,0.00
2022-12-26T02:03:02.934Z,0.00
2022-12-26T02:04:02.835Z,0.00
2022-12-26T02:05:02.858Z,0.00
2022-12-26T02:06:02.844Z,0.00
2022-12-26T02:07:02.846Z,0.00
2022-12-26T02:08:02.852Z,0.00
2022-12-26T02:09:02.863Z,0.00
2022-12-26T02:10:02.873Z,0.00
2022-12-26T02:11:02.868Z,0.00
2022-12-26T02:12:34.041Z,0.00
2022-12-26T02:13:02.878Z,0.00
2022-12-26T02:14:02.877Z,0.00
2022-12-26T02:15:02.921Z,0.00
2022-12-26T02:16:03.016Z,0.00
2022-12-26T02:17:03.003Z,0.00
2022-12-26T02:18:02.904Z,0.00
2022-12-26T02:19:02.959Z,0.00
2022-12-26T02:20:02.906Z,0.00
2022-12-26T02:21:02.927Z,0.00
2022-12-26T02:22:02.918Z,0.00
2022-12-26T02:23:02.932Z,0.00
2022-12-26T02:24:02.933Z,0.00
2022-12-26T02:25:02.946Z,0.00
2022-12-26T02:26:02.968Z,0.00
2022-12-26T02:27:02.959Z,0.00
2022-12-26T02:28:02.966Z,0.00
2022-12-26T02:29:02.958Z,0.00
2022-12-26T02:30:02.969Z,0.00
2022-12-26T02:31:03.004Z,0.00
2022-12-26T02:32:03.012Z,0.00
2022-12-26T02:33:02.983Z,0.00
2022-12-26T02:34:02.981Z,0.00
2022-12-26T02:35:02.980Z,0.00
2022-12-26T02:36:02.990Z,0.00
2022-12-26T02:37:03.010Z,0.00
2022-12-26T02:38:03.006Z,0.00
2022-12-26T02:39:03.006Z,0.00
2022-12-26T02:40:03.007Z,0.00
2022-12-26T02:41:03.006Z,0.00
2022-12-26T02:42:03.020Z,0.00
2022-12-26T02:43:03.027Z,0.00
2022-12-26T02:44:03.024Z,0.00
2022-12-26T02:45:03.032Z,0.00
2022-12-26T02:46:03.212Z,0.00
2022-12-26T02:47:03.071Z,0.00
2022-12-26T02:48:03.050Z,0.00
2022-12-26T02:49:03.040Z,0.00
2022-12-26T02:50:03.056Z,0.00
2022-12-26T02:51:03.060Z,0.00
2022-12-26T02:52:03.058Z,0.00
2022-12-26T02:53:03.084Z,0.00
2022-12-26T02:54:03.072Z,0.00
2022-12-26T02:55:03.080Z,0.00
2022-12-26T02:56:03.091Z,0.00
2022-12-26T02:57:03.080Z,0.00
2022-12-26T02:58:03.097Z,0.00
2022-12-26T02:59:03.093Z,0.00
2022-12-26T03:00:03.150Z,0.00
2022-12-26T03:01:03.387Z,0.00
2022-12-26T03:02:03.368Z,0.00
2022-12-26T03:03:03.267Z,0.00
2022-12-26T03:04:03.136Z,0.00
2022-12-26T03:05:03.133Z,0.00
2022-12-26T03:06:03.130Z,0.00
2022-12-26T03:07:03.132Z,0.00
2022-12-26T03:08:03.140Z,0.00
2022-12-26T03:09:03.151Z,0.00
2022-12-26T03:10:03.150Z,0.00
2022-12-26T03:11:03.157Z,0.00
2022-12-26T03:12:03.161Z,0.00
2022-12-26T03:13:03.159Z,0.00
2022-12-26T03:14:03.170Z,0.00
2022-12-26T03:15:03.180Z,0.00
2022-12-26T03:16:03.173Z,0.00
2022-12-26T03:17:03.238Z,0.00
2022-12-26T03:18:03.191Z,0.00
2022-12-26T03:19:03.209Z,0.00
2022-12-26T03:20:03.217Z,0.00
2022-12-26T03:21:03.206Z,0.00
2022-12-26T03:22:03.219Z,0.00
2022-12-26T03:23:03.211Z,0.00
2022-12-26T03:24:03.213Z,0.00
2022-12-26T03:25:03.214Z,0.00
2022-12-26T03:26:03.225Z,0.00
2022-12-26T03:27:03.233Z,0.00
2022-12-26T03:28:03.231Z,0.00
2022-12-26T03:29:03.240Z,0.00
2022-12-26T03:30:03.241Z,0.00
2022-12-26T03:31:03.315Z,0.00
2022-12-26T03:32:03.277Z,0.00
2022-12-26T03:33:03.265Z,0.00
2022-12-26T03:34:03.273Z,0.00
2022-12-26T03:35:03.286Z,0.00
2022-12-26T03:36:03.277Z,0.00
2022-12-26T03:37:03.281Z,0.00
2022-12-26T03:38:03.279Z,0.00
2022-12-26T03:39:03.284Z,0.00
2022-12-26T03:40:03.300Z,0.00
2022-12-26T03:41:03.301Z,0.00
2022-12-26T03:42:03.312Z,0.00
2022-12-26T03:43:03.319Z,0.00
2022-12-26T03:44:03.305Z,0.00
2022-12-26T03:45:03.331Z,0.00
2022-12-26T03:46:03.367Z,0.00
2022-12-26T03:47:03.326Z,0.00
2022-12-26T03:48:03.336Z,0.00
2022-12-26T03:49:03.332Z,0.00
2022-12-26T03:50:03.345Z,0.00
2022-12-26T03:51:03.361Z,0.00
2022-12-26T03:52:03.351Z,0.00
2022-12-26T03:53:03.346Z,0.00
2022-12-26T03:54:03.361Z,0.00
2022-12-26T03:55:03.373Z,0.00
2022-12-26T03:56:03.370Z,0.00
2022-12-26T03:57:03.372Z,0.00
2022-12-26T03:58:03.385Z,0.00
2022-12-26T03:59:03.397Z,0.00
2022-12-26T04:00:03.490Z,0.00
2022-12-26T04:01:03.531Z,0.00
2022-12-26T04:02:03.487Z,0.00
2022-12-26T04:03:03.397Z,0.00
2022-12-26T04:04:03.602Z,0.00
2022-12-26T04:05:03.408Z,0.00
2022-12-26T04:06:03.420Z,0.00
2022-12-26T04:07:03.471Z,0.00
2022-12-26T04:08:03.423Z,0.00
2022-12-26T04:09:03.432Z,0.00
2022-12-26T04:10:03.433Z,0.00
2022-12-26T04:11:03.433Z,0.00
2022-12-26T04:12:03.440Z,0.00
2022-12-26T04:13:03.450Z,0.00
2022-12-26T04:14:03.461Z,0.00
2022-12-26T04:15:03.468Z,0.00
2022-12-26T04:16:03.544Z,0.00
2022-12-26T04:17:03.477Z,0.00
2022-12-26T04:18:03.471Z,0.00
2022-12-26T04:19:03.477Z,0.00
2022-12-26T04:20:03.492Z,0.00
2022-12-26T04:21:03.483Z,0.00
2022-12-26T04:22:03.486Z,0.00
2022-12-26T04:23:03.539Z,0.00
2022-12-26T04:24:03.490Z,0.00
2022-12-26T04:25:03.513Z,0.00
2022-12-26T04:26:03.515Z,0.00
2022-12-26T04:27:03.514Z,0.00
2022-12-26T04:28:03.522Z,0.00
2022-12-26T04:29:03.520Z,0.00
2022-12-26T04:30:03.535Z,0.00
2022-12-26T04:31:03.615Z,0.00
2022-12-26T04:32:03.550Z,0.00
2022-12-26T04:33:03.530Z,0.00
2022-12-26T04:34:03.540Z,0.00
2022-12-26T04:35:03.583Z,0.00
2022-12-26T04:36:03.563Z,0.00
2022-12-26T04:37:03.547Z,0.00
2022-12-26T04:38:03.580Z,0.00
2022-12-26T04:39:03.579Z,0.00
2022-12-26T04:40:03.580Z,0.00
2022-12-26T04:41:03.563Z,0.00
2022-12-26T04:42:03.572Z,0.00
2022-12-26T04:43:47.148Z,0.00
2022-12-26T04:44:03.588Z,0.00
2022-12-26T04:45:03.585Z,0.00
2022-12-26T04:46:03.629Z,0.00
2022-12-26T04:47:03.606Z,0.00
2022-12-26T04:48:03.605Z,0.00
2022-12-26T04:49:03.632Z,0.00
2022-12-26T04:50:03.620Z,0.00
2022-12-26T04:51:03.612Z,0.00
2022-12-26T04:52:03.625Z,0.00
2022-12-26T04:53:03.639Z,0.00
2022-12-26T04:54:03.629Z,0.00
2022-12-26T04:55:03.657Z,0.00
2022-12-26T04:56:03.643Z,0.00
2022-12-26T04:57:03.650Z,0.00
2022-12-26T04:58:03.646Z,0.00
2022-12-26T04:59:03.653Z,0.00
2022-12-26T05:00:03.650Z,0.00
2022-12-26T05:01:03.734Z,0.00
2022-12-26T05:02:03.806Z,0.00
2022-12-26T05:03:03.703Z,0.00
2022-12-26T05:04:03.804Z,0.00
2022-12-26T05:05:03.679Z,0.00
2022-12-26T05:06:03.687Z,0.00
2022-12-26T05:07:03.681Z,0.00
2022-12-26T05:08:03.690Z,0.00
2022-12-26T05:09:03.687Z,0.00
2022-12-26T05:10:03.702Z,0.00
2022-12-26T05:11:03.738Z,0.00
2022-12-26T05:12:03.708Z,0.00
2022-12-26T05:13:03.713Z,0.00
2022-12-26T05:14:03.723Z,0.00
2022-12-26T05:15:03.716Z,0.00
2022-12-26T05:16:03.754Z,0.00
2022-12-26T05:17:03.725Z,0.00
2022-12-26T05:18:03.743Z,0.00
2022-12-26T05:19:03.743Z,0.00
2022-12-26T05:20:03.749Z,0.00
2022-12-26T05:21:03.753Z,0.00
2022-12-26T05:22:03.755Z,0.00
2022-12-26T05:23:03.763Z,0.00
2022-12-26T05:24:03.763Z,0.00
2022-12-26T05:25:03.771Z,0.00
2022-12-26T05:26:03.771Z,0.00
2022-12-26T05:27:03.798Z,0.00
2022-12-26T05:28:03.776Z,0.00
2022-12-26T05:29:03.824Z,0.00
2022-12-26T05:30:03.783Z,0.00
2022-12-26T05:31:03.832Z,0.00
2022-12-26T05:32:03.795Z,0.00
2022-12-26T05:33:03.799Z,0.00
2022-12-26T05:34:03.828Z,0.00
2022-12-26T05:35:03.808Z,0.00
2022-12-26T05:36:03.816Z,0.00
2022-12-26T05:37:03.825Z,0.00
2022-12-26T05:38:03.819Z,0.00
2022-12-26T05:39:03.835Z,0.00
2022-12-26T05:40:03.829Z,0.00
2022-12-26T05:41:03.844Z,0.00
2022-12-26T05:42:03.845Z,0.00
2022-12-26T05:43:03.883Z,0.00
2022-12-26T05:44:03.855Z,0.00
2022-12-26T05:45:03.865Z,0.00
2022-12-26T05:46:03.935Z,0.00
2022-12-26T05:47:03.965Z,0.00
2022-12-26T05:48:03.877Z,0.00
2022-12-26T05:49:03.869Z,0.00
2022-12-26T05:50:03.884Z,0.00
2022-12-26T05:51:03.884Z,0.00
2022-12-26T05:52:03.892Z,0.00
2022-12-26T05:53:03.900Z,0.00
2022-12-26T05:54:03.902Z,0.00
2022-12-26T05:55:03.929Z,0.00
2022-12-26T05:56:03.909Z,0.00
2022-12-26T05:57:03.922Z,0.00
2022-12-26T05:58:03.913Z,0.00
2022-12-26T05:59:03.947Z,0.00
2022-12-26T06:00:03.923Z,0.00
2022-12-26T06:01:04.012Z,0.00
2022-12-26T06:02:04.098Z,0.00
2022-12-26T06:03:04.049Z,0.00
2022-12-26T06:04:04.014Z,0.00
2022-12-26T06:05:03.948Z,0.00
2022-12-26T06:06:03.957Z,0.00
2022-12-26T06:07:03.962Z,0.00
2022-12-26T06:08:03.954Z,0.00
2022-12-26T06:09:03.963Z,0.00
2022-12-26T06:10:03.967Z,0.00
2022-12-26T06:11:03.983Z,0.00
2022-12-26T06:12:03.979Z,0.00
2022-12-26T06:13:03.981Z,0.00
2022-12-26T06:14:04.008Z,0.00
2022-12-26T06:15:04.012Z,0.00
2022-12-26T06:16:04.036Z,0.00
2022-12-26T06:17:04.000Z,0.00
2022-12-26T06:18:04.007Z,0.00
2022-12-26T06:19:04.011Z,0.00
2022-12-26T06:20:04.016Z,0.00
2022-12-26T06:21:04.021Z,0.00
2022-12-26T06:22:04.025Z,0.00
2022-12-26T06:23:04.041Z,0.00
2022-12-26T06:24:04.031Z,0.00
2022-12-26T06:25:04.043Z,0.00
2022-12-26T06:26:04.129Z,0.00
2022-12-26T06:27:04.078Z,0.00
2022-12-26T06:28:04.054Z,0.00
2022-12-26T06:29:04.058Z,0.00
2022-12-26T06:30:04.077Z,0.00
2022-12-26T06:31:04.172Z,0.00
2022-12-26T06:32:04.177Z,0.00
2022-12-26T06:33:04.085Z,0.00
2022-12-26T06:34:04.091Z,0.00
2022-12-26T06:35:04.095Z,0.00
2022-12-26T06:36:04.099Z,0.00
2022-12-26T06:37:04.106Z,0.00
2022-12-26T06:38:04.110Z,0.00
2022-12-26T06:39:04.107Z,0.00
2022-12-26T06:40:04.119Z,0.00
2022-12-26T06:41:04.115Z,0.00
2022-12-26T06:42:04.127Z,0.00
2022-12-26T06:43:04.128Z,0.00
2022-12-26T06:44:04.129Z,0.00
2022-12-26T06:45:04.143Z,0.00
2022-12-26T06:46:04.170Z,0.00
2022-12-26T06:47:04.270Z,0.00
2022-12-26T06:48:04.155Z,0.00
2022-12-26T06:49:04.156Z,0.00
2022-12-26T06:50:04.159Z,0.00
2022-12-26T06:51:04.175Z,0.00
2022-12-26T06:52:04.171Z,0.00
2022-12-26T06:53:04.190Z,0.00
2022-12-26T06:54:04.180Z,0.00
2022-12-26T06:55:04.185Z,0.00
2022-12-26T06:56:04.189Z,0.00
2022-12-26T06:57:04.201Z,0.00
2022-12-26T06:58:04.205Z,0.00
2022-12-26T06:59:04.206Z,0.00
2022-12-26T07:00:04.222Z,0.00
2022-12-26T07:01:04.370Z,0.00
2022-12-26T07:02:04.368Z,0.00
2022-12-26T07:03:04.292Z,0.00
2022-12-26T07:04:04.265Z,0.00
2022-12-26T07:05:04.248Z,0.00
2022-12-26T07:06:04.271Z,0.00
2022-12-26T07:07:04.244Z,0.00
2022-12-26T07:08:04.256Z,0.00
2022-12-26T07:09:04.265Z,0.00
2022-12-26T07:10:04.264Z,0.00
2022-12-26T07:11:04.271Z,0.00
2022-12-26T07:12:04.268Z,0.00
2022-12-26T07:13:04.283Z,0.00
2022-12-26T07:14:04.279Z,0.00
2022-12-26T07:15:04.298Z,0.00
2022-12-26T07:16:04.356Z,0.00
2022-12-26T07:17:04.308Z,0.00
2022-12-26T07:18:04.305Z,0.00
2022-12-26T07:19:04.330Z,0.00
2022-12-26T07:20:04.315Z,0.00
2022-12-26T07:21:04.323Z,0.00
2022-12-26T07:22:04.326Z,0.00
2022-12-26T07:23:04.338Z,0.00
2022-12-26T07:24:04.369Z,0.00
2022-12-26T07:25:04.337Z,0.00
2022-12-26T07:26:04.361Z,0.00
2022-12-26T07:27:04.346Z,0.00
2022-12-26T07:28:04.344Z,0.00
2022-12-26T07:29:04.350Z,0.00
2022-12-26T07:30:04.359Z,0.00
2022-12-26T07:31:04.380Z,5.63
2022-12-26T07:32:04.419Z,5.63
2022-12-26T07:33:04.369Z,5.63
2022-12-26T07:34:04.390Z,5.63
2022-12-26T07:35:04.408Z,5.63
2022-12-26T07:36:04.479Z,11.25
2022-12-26T07:37:04.386Z,11.25
2022-12-26T07:38:04.401Z,11.25
2022-12-26T07:39:04.416Z,11.25
2022-12-26T07:40:04.447Z,11.25
2022-12-26T07:41:04.408Z,11.25
2022-12-26T07:42:04.427Z,11.25
2022-12-26T07:43:04.429Z,11.25
2022-12-26T07:44:04.423Z,11.25
2022-12-26T07:45:04.430Z,11.25
2022-12-26T07:46:04.561Z,11.25
2022-12-26T07:47:04.439Z,11.25
2022-12-26T07:48:04.453Z,11.25
2022-12-26T07:49:04.454Z,16.88
2022-12-26T07:50:04.457Z,16.88
2022-12-26T07:51:04.482Z,16.88
2022-12-26T07:52:04.458Z,16.88
2022-12-26T07:53:04.464Z,16.88
2022-12-26T07:54:10.671Z,22.50
2022-12-26T07:55:04.484Z,22.50
2022-12-26T07:56:04.484Z,22.50
2022-12-26T07:57:38.204Z,22.50
2022-12-26T07:58:04.500Z,22.50
2022-12-26T07:59:04.502Z,22.50
2022-12-26T08:00:04.501Z,22.50
2022-12-26T08:01:04.779Z,22.50
2022-12-26T08:02:04.718Z,22.50
2022-12-26T08:03:07.723Z,22.50
2022-12-26T08:04:04.521Z,22.50
2022-12-26T08:05:04.518Z,22.50
2022-12-26T08:06:04.533Z,22.50
2022-12-26T08:07:04.549Z,22.50
2022-12-26T08:08:04.553Z,22.50
2022-12-26T08:09:04.564Z,22.50
2022-12-26T08:10:04.549Z,22.50
2022-12-26T08:11:04.552Z,22.50
2022-12-26T08:12:04.578Z,22.50
2022-12-26T08:13:04.565Z,22.50
2022-12-26T08:14:04.575Z,28.13
2022-12-26T08:15:04.567Z,28.13
2022-12-26T08:16:04.591Z,28.13
2022-12-26T08:17:04.648Z,28.13
2022-12-26T08:18:04.582Z,33.75
2022-12-26T08:19:04.593Z,39.38
2022-12-26T08:20:04.592Z,39.38
2022-12-26T08:21:04.603Z,33.75
2022-12-26T08:22:04.623Z,33.75
2022-12-26T08:23:04.632Z,33.75
2022-12-26T08:24:04.619Z,28.13
2022-12-26T08:25:04.636Z,22.50
2022-12-26T08:26:04.629Z,22.50
2022-12-26T08:27:04.642Z,22.50
2022-12-26T08:28:04.642Z,22.50
2022-12-26T08:29:04.648Z,22.50
2022-12-26T08:30:04.641Z,22.50
2022-12-26T08:31:04.646Z,28.13
2022-12-26T08:32:04.657Z,28.13
2022-12-26T08:33:04.663Z,22.50
2022-12-26T08:34:04.682Z,22.50
2022-12-26T08:35:04.673Z,22.50
2022-12-26T08:36:04.671Z,22.50
2022-12-26T08:37:04.678Z,22.50
2022-12-26T08:38:04.681Z,22.50
2022-12-26T08:39:04.714Z,22.50
2022-12-26T08:40:04.703Z,16.88
2022-12-26T08:41:04.716Z,16.88
2022-12-26T08:42:04.708Z,16.88
2022-12-26T08:43:22.100Z,16.88
2022-12-26T08:45:04.815Z,28.13
2022-12-26T08:46:04.859Z,28.13
2022-12-26T08:47:04.729Z,28.13
2022-12-26T08:48:04.741Z,28.13
2022-12-26T08:49:04.751Z,28.13
2022-12-26T08:50:04.753Z,33.75
2022-12-26T08:51:04.751Z,39.38
2022-12-26T08:52:04.758Z,45.00
2022-12-26T08:53:04.764Z,50.63
2022-12-26T08:54:04.785Z,56.25
2022-12-26T08:55:04.856Z,50.63
2022-12-26T08:56:04.784Z,50.63
2022-12-26T08:57:04.793Z,45.00
2022-12-26T08:58:04.825Z,45.00
2022-12-26T08:59:04.794Z,56.25
2022-12-26T09:00:04.801Z,56.25
2022-12-26T09:01:04.894Z,56.25
2022-12-26T09:02:05.020Z,56.25
2022-12-26T09:03:04.882Z,56.25
2022-12-26T09:04:04.821Z,61.88
2022-12-26T09:05:04.819Z,61.88
2022-12-26T09:06:06.548Z,56.25
2022-12-26T09:07:04.832Z,56.25
2022-12-26T09:08:04.833Z,50.63
2022-12-26T09:09:04.845Z,50.63
2022-12-26T09:10:04.854Z,56.25
2022-12-26T09:11:04.878Z,56.25
2022-12-26T09:12:04.863Z,56.25
2022-12-26T09:13:04.868Z,50.63
2022-12-26T09:14:04.867Z,56.25
2022-12-26T09:15:04.899Z,50.63
2022-12-26T09:16:04.881Z,45.00
2022-12-26T09:17:04.909Z,39.38
2022-12-26T09:18:04.893Z,45.00
2022-12-26T09:19:04.912Z,39.38
2022-12-26T09:20:04.902Z,45.00
2022-12-26T09:21:04.914Z,39.38
2022-12-26T09:22:04.915Z,39.38
2022-12-26T09:23:04.914Z,39.38
2022-12-26T09:24:04.913Z,50.63
2022-12-26T09:25:04.931Z,45.00
2022-12-26T09:26:04.947Z,45.00
2022-12-26T09:27:04.983Z,50.63
2022-12-26T09:28:04.945Z,50.63
2022-12-26T09:29:04.939Z,50.63
2022-12-26T09:30:04.955Z,45.00
2022-12-26T09:31:05.087Z,45.00
2022-12-26T09:32:04.966Z,45.00
2022-12-26T09:33:04.970Z,56.25
2022-12-26T09:34:04.976Z,56.25
2022-12-26T09:35:04.989Z,50.63
2022-12-26T09:36:09.491Z,50.63
2022-12-26T09:37:04.984Z,45.00
2022-12-26T09:38:04.988Z,39.38
2022-12-26T09:39:04.994Z,45.00
2022-12-26T09:40:05.007Z,45.00
2022-12-26T09:41:05.005Z,45.00
2022-12-26T09:42:05.020Z,39.38
2022-12-26T09:43:05.046Z,39.38
2022-12-26T09:44:05.027Z,39.38
2022-12-26T09:45:05.034Z,39.38
2022-12-26T09:46:05.083Z,45.00
2022-12-26T09:47:05.072Z,45.00
2022-12-26T09:48:05.047Z,45.00
2022-12-26T09:49:05.047Z,45.00
2022-12-26T09:50:05.058Z,50.63
2022-12-26T09:51:05.075Z,50.63
2022-12-26T09:52:05.103Z,50.63
2022-12-26T09:53:05.071Z,50.63
2022-12-26T09:54:05.075Z,45.00
2022-12-26T09:55:05.075Z,45.00
2022-12-26T09:56:05.087Z,39.38
2022-12-26T09:57:09.884Z,33.75
2022-12-26T09:58:05.096Z,33.75
2022-12-26T09:59:05.123Z,33.75
2022-12-26T10:00:05.131Z,33.75
2022-12-26T10:01:05.207Z,33.75
2022-12-26T10:02:05.207Z,33.75
2022-12-26T10:03:05.130Z,39.38
2022-12-26T10:04:05.181Z,45.00
2022-12-26T10:05:05.281Z,50.63
2022-12-26T10:06:05.149Z,50.63
2022-12-26T10:07:05.147Z,56.25
2022-12-26T10:08:05.155Z,56.25
2022-12-26T10:09:05.156Z,56.25
2022-12-26T10:10:05.173Z,50.63
2022-12-26T10:11:05.165Z,50.63
2022-12-26T10:12:05.174Z,50.63
2022-12-26T10:13:05.169Z,50.63
2022-12-26T10:14:05.183Z,45.00
2022-12-26T10:15:05.213Z,45.00
2022-12-26T10:16:05.228Z,45.00
2022-12-26T10:17:05.195Z,50.63
2022-12-26T10:18:05.195Z,50.63
2022-12-26T10:19:05.207Z,56.25
2022-12-26T10:20:05.220Z,56.25
2022-12-26T10:21:05.209Z,56.25
2022-12-26T10:22:05.225Z,61.88
2022-12-26T10:23:05.233Z,61.88
2022-12-26T10:24:05.238Z,61.88
2022-12-26T10:25:05.237Z,67.50
2022-12-26T10:26:05.245Z,67.50
2022-12-26T10:27:05.244Z,67.50
2022-12-26T10:28:05.254Z,78.75
2022-12-26T10:29:05.258Z,78.75
2022-12-26T10:30:05.270Z,78.75
2022-12-26T10:31:05.322Z,78.75
2022-12-26T10:32:05.275Z,84.38
2022-12-26T10:33:05.273Z,78.75
2022-12-26T10:34:05.336Z,73.13
2022-12-26T10:35:05.282Z,73.13
2022-12-26T10:36:05.297Z,67.50
2022-12-26T10:37:05.293Z,61.88
2022-12-26T10:38:05.319Z,56.25
2022-12-26T10:39:05.315Z,56.25
2022-12-26T10:40:05.316Z,56.25
2022-12-26T10:41:05.315Z,61.88
2022-12-26T10:42:05.328Z,73.13
2022-12-26T10:43:05.336Z,90.00
2022-12-26T10:44:05.336Z,101.25
2022-12-26T10:45:05.454Z,112.50
2022-12-26T10:46:05.443Z,123.75
2022-12-26T10:47:05.380Z,135.00
2022-12-26T10:48:05.360Z,140.63
2022-12-26T10:49:05.356Z,140.63
2022-12-26T10:50:05.365Z,140.63
2022-12-26T10:51:05.374Z,146.25
2022-12-26T10:52:05.382Z,146.25
2022-12-26T10:53:05.388Z,146.25
2022-12-26T10:54:05.381Z,135.00
2022-12-26T10:55:28.323Z,118.13
2022-12-26T10:56:05.391Z,95.63
2022-12-26T10:57:05.401Z,78.75
2022-12-26T10:58:05.412Z,67.50
2022-12-26T10:59:05.409Z,67.50
2022-12-26T11:00:05.511Z,67.50
2022-12-26T11:01:05.490Z,67.50
2022-12-26T11:02:07.280Z,67.50
2022-12-26T11:03:05.764Z,61.88
2022-12-26T11:04:05.443Z,61.88
2022-12-26T11:05:21.819Z,61.88
2022-12-26T11:06:08.040Z,61.88
2022-12-26T11:07:05.464Z,67.50
2022-12-26T11:08:05.461Z,67.50
2022-12-26T11:09:05.464Z,67.50
2022-12-26T11:10:05.470Z,73.13
2022-12-26T11:11:05.493Z,78.75
2022-12-26T11:12:05.480Z,78.75
2022-12-26T11:13:05.485Z,78.75
2022-12-26T11:14:05.496Z,84.38
2022-12-26T11:15:05.494Z,84.38
2022-12-26T11:16:05.595Z,84.38
2022-12-26T11:17:05.536Z,78.75
2022-12-26T11:18:05.511Z,73.13
2022-12-26T11:19:05.546Z,67.50
2022-12-26T11:20:05.523Z,61.88
2022-12-26T11:21:09.433Z,67.50
2022-12-26T11:22:05.533Z,67.50
2022-12-26T11:23:05.541Z,73.13
2022-12-26T11:24:05.543Z,67.50
2022-12-26T11:25:05.567Z,67.50
2022-12-26T11:26:05.558Z,73.13
2022-12-26T11:27:11.096Z,73.13
2022-12-26T11:28:05.565Z,73.13
2022-12-26T11:29:05.572Z,67.50
2022-12-26T11:30:05.582Z,67.50
2022-12-26T11:31:05.624Z,61.88
2022-12-26T11:32:05.595Z,67.50
2022-12-26T11:33:11.737Z,73.13
2022-12-26T11:34:05.605Z,73.13
2022-12-26T11:35:05.632Z,78.75
2022-12-26T11:36:05.610Z,84.38
2022-12-26T11:37:05.627Z,90.00
2022-12-26T11:38:05.620Z,84.38
2022-12-26T11:39:05.623Z,84.38
2022-12-26T11:40:05.640Z,90.00
2022-12-26T11:41:05.642Z,101.25
2022-12-26T11:42:05.650Z,112.50
2022-12-26T11:43:05.653Z,118.13
2022-12-26T11:44:05.659Z,118.13
2022-12-26T11:45:05.657Z,112.50
2022-12-26T11:46:05.724Z,101.25
2022-12-26T11:47:05.678Z,95.63
2022-12-26T11:48:05.684Z,84.38
2022-12-26T11:49:05.678Z,84.38
2022-12-26T11:50:05.700Z,84.38
2022-12-26T11:51:05.711Z,78.75
2022-12-26T11:52:05.697Z,67.50
2022-12-26T11:53:05.710Z,73.13
2022-12-26T11:54:05.714Z,78.75
2022-12-26T11:55:05.714Z,90.00
2022-12-26T11:56:05.739Z,106.88
2022-12-26T11:57:05.730Z,112.50
2022-12-26T11:58:05.734Z,118.13
2022-12-26T11:59:05.739Z,135.00
2022-12-26T12:00:05.747Z,140.63
2022-12-26T12:01:05.959Z,146.25
2022-12-26T12:02:05.779Z,151.88
2022-12-26T12:03:05.803Z,168.75
2022-12-26T12:04:05.767Z,191.25
2022-12-26T12:05:05.773Z,185.63
2022-12-26T12:06:05.770Z,180.00
2022-12-26T12:07:05.803Z,174.38
2022-12-26T12:08:05.783Z,163.13
2022-12-26T12:09:06.402Z,151.88
2022-12-26T12:10:05.811Z,146.25
2022-12-26T12:11:05.814Z,140.63
2022-12-26T12:12:05.810Z,129.38
2022-12-26T12:13:05.811Z,140.63
2022-12-26T12:14:05.824Z,151.88
2022-12-26T12:15:05.831Z,174.38
2022-12-26T12:16:05.855Z,191.25
2022-12-26T12:17:05.839Z,191.25
2022-12-26T12:18:05.839Z,191.25
2022-12-26T12:19:05.845Z,191.25
2022-12-26T12:20:05.852Z,185.63
2022-12-26T12:21:05.863Z,180.00
2022-12-26T12:22:05.869Z,180.00
2022-12-26T12:23:05.888Z,230.63
2022-12-26T12:24:05.894Z,247.50
2022-12-26T12:25:05.877Z,230.63
2022-12-26T12:26:05.894Z,236.25
2022-12-26T12:27:05.902Z,208.13
2022-12-26T12:28:05.904Z,202.50
2022-12-26T12:29:05.912Z,196.88
2022-12-26T12:30:05.909Z,191.25
2022-12-26T12:31:05.922Z,196.88
2022-12-26T12:32:06.056Z,180.00
2022-12-26T12:33:05.935Z,174.38
2022-12-26T12:34:05.937Z,157.50
2022-12-26T12:35:05.946Z,146.25
2022-12-26T12:36:05.951Z,146.25
2022-12-26T12:37:05.961Z,140.63
2022-12-26T12:38:05.965Z,129.38
2022-12-26T12:39:05.997Z,123.75
2022-12-26T12:40:05.975Z,118.13
2022-12-26T12:41:05.974Z,112.50
2022-12-26T12:42:05.982Z,112.50
2022-12-26T12:43:06.004Z,118.13
2022-12-26T12:44:05.993Z,118.13
2022-12-26T12:45:06.028Z,118.13
2022-12-26T12:46:06.023Z,123.75
2022-12-26T12:47:06.017Z,123.75
2022-12-26T12:48:06.027Z,118.13
2022-12-26T12:49:06.025Z,123.75
2022-12-26T12:50:06.038Z,129.38
2022-12-26T12:51:06.057Z,135.00
2022-12-26T12:52:06.043Z,135.00
2022-12-26T12:53:06.070Z,129.38
2022-12-26T12:54:06.061Z,135.00
2022-12-26T12:55:06.142Z,129.38
2022-12-26T12:56:06.063Z,129.38
2022-12-26T12:57:06.066Z,129.38
2022-12-26T12:58:06.068Z,129.38
2022-12-26T12:59:06.073Z,135.00
2022-12-26T13:00:06.085Z,135.00
2022-12-26T13:01:06.198Z,135.00
2022-12-26T13:02:09.778Z,135.00
2022-12-26T13:03:06.219Z,140.63
2022-12-26T13:04:06.109Z,135.00
2022-12-26T13:05:06.118Z,135.00